Time,TemperatureF,DewpointF,PressureIn,WindDirection,WindDirectionDegrees,WindSpeedMPH,WindSpeedGustMPH,Humidity,HourlyPrecipIn,Conditions,Clouds,dailyrainin,SoftwareType,DateUTC
2013-04-05 00:01:00,50.2,45.2,29.76,East,83,2.7,8.3,83,0.00,,,0.00,WeatherCatV1.12B45,2013-04-05 07:01:00,
2013-04-05 00:06:00,50.0,44.4,29.76,ESE,115,4.0,5.4,81,0.00,,,0.00,WeatherCatV1.12B45,2013-04-05 07:06:00,
2013-04-05 00:12:00,50.0,44.4,29.76,SSW,196,3.6,6.3,81,0.00,,,0.00,WeatherCatV1.12B45,2013-04-05 07:12:00,
2013-04-05 00:17:00,50.0,44.1,29.76,West,261,5.8,6.3,80,0.00,,,0.00,WeatherCatV1.12B45,2013-04-05 07:17:00,
2013-04-05 00:22:00,50.0,44.1,29.76,SSW,210,4.9,4.9,80,0.00,,,0.00,WeatherCatV1.12B45,2013-04-05 07:22:00,
2013-04-05 00:27:00,50.2,43.9,29.76,South,190,0.0,5.8,79,0.00,,,0.00,WeatherCatV1.12B45,2013-04-05 07:27:00,
2013-04-05 00:32:00,50.0,43.7,29.79,SSE,148,0.0,8.3,79,0.00,,,0.00,WeatherCatV1.12B45,2013-04-05 07:32:00,
2013-04-05 00:37:00,50.0,43.7,29.79,South,186,3.6,5.4,79,0.00,,,0.00,WeatherCatV1.12B45,2013-04-05 07:37:00,
2013-04-05 00:42:00,49.8,43.6,29.79,SSW,202,2.7,3.1,79,0.00,,,0.00,WeatherCatV1.12B45,2013-04-05 07:42:00,
2013-04-05 00:47:00,49.6,43.1,29.79,South,176,0.0,4.0,78,0.00,,,0.00,WeatherCatV1.12B45,2013-04-05 07:47:00,
2013-04-05 00:52:00,49.5,43.2,29.79,SSW,194,4.0,4.0,79,0.00,,,0.00,WeatherCatV1.12B45,2013-04-05 07:52:00,
2013-04-05 00:57:00,49.5,43.2,29.79,South,187,0.0,5.8,79,0.00,,,0.00,WeatherCatV1.12B45,2013-04-05 07:57:00,
2013-04-05 01:02:00,49.5,43.2,29.79,SSW,196,0.0,0.0,79,0.00,,,0.00,WeatherCatV1.12B45,2013-04-05 08:02:00,
2013-04-05 01:07:00,49.5,43.2,29.79,ESE,106,0.0,0.0,79,0.00,,,0.00,WeatherCatV1.12B45,2013-04-05 08:07:00,
2013-04-05 01:12:00,49.5,42.9,29.79,South,185,0.0,2.7,78,0.00,,,0.00,WeatherCatV1.12B45,2013-04-05 08:12:00,
2013-04-05 01:17:00,49.5,43.2,29.79,West,266,0.0,0.0,79,0.00,,,0.00,WeatherCatV1.12B45,2013-04-05 08:17:00,
2013-04-05 01:22:00,49.3,42.7,29.79,SSW,201,0.0,2.2,78,0.00,,,0.00,WeatherCatV1.12B45,2013-04-05 08:22:00,
2013-04-05 01:27:00,48.9,41.7,29.79,WSW,238,0.0,0.0,76,0.00,,,0.00,WeatherCatV1.12B45,2013-04-05 08:27:00,
2013-04-05 01:32:00,48.6,41.3,29.79,West,270,0.0,0.0,76,0.00,,,0.00,WeatherCatV1.12B45,2013-04-05 08:32:00,
2013-04-05 01:37:00,48.4,41.5,29.79,ESE,118,0.0,0.0,77,0.00,,,0.00,WeatherCatV1.12B45,2013-04-05 08:37:00,
2013-04-05 01:42:00,48.2,41.7,29.79,WSW,252,0.0,0.0,78,0.00,,,0.00,WeatherCatV1.12B45,2013-04-05 08:42:00,
2013-04-05 01:47:00,48.2,41.7,29.79,SE,141,0.0,0.0,78,0.00,,,0.00,WeatherCatV1.12B45,2013-04-05 08:47:00,
2013-04-05 01:52:00,48.0,41.8,29.79,ESE,120,0.0,0.0,79,0.00,,,0.00,WeatherCatV1.12B45,2013-04-05 08:52:00,
2013-04-05 01:57:00,48.2,42.3,29.79,SSE,157,0.0,0.0,80,0.00,,,0.00,WeatherCatV1.12B45,2013-04-05 08:57:00,
2013-04-05 02:02:00,48.6,43.0,29.79,SSE,150,0.0,2.7,81,0.00,,,0.00,WeatherCatV1.12B45,2013-04-05 09:02:00,
2013-04-05 02:07:00,48.7,43.2,29.79,SW,233,0.0,0.0,81,0.00,,,0.00,WeatherCatV1.12B45,2013-04-05 09:07:00,
2013-04-05 02:12:00,48.7,42.8,29.79,ESE,118,0.0,0.0,80,0.00,,,0.00,WeatherCatV1.12B45,2013-04-05 09:12:00,
2013-04-05 02:17:00,48.9,42.7,29.79,SE,142,0.0,0.0,79,0.00,,,0.00,WeatherCatV1.12B45,2013-04-05 09:17:00,
2013-04-05 02:22:00,48.6,41.7,29.79,ESE,112,0.0,8.1,77,0.00,,,0.00,WeatherCatV1.12B45,2013-04-05 09:22:00,
2013-04-05 02:27:00,48.0,40.8,29.79,ENE,77,0.0,0.0,76,0.00,,,0.00,WeatherCatV1.12B45,2013-04-05 09:27:00,
2013-04-05 02:32:00,47.5,40.6,29.79,SW,222,2.7,5.4,77,0.00,,,0.00,WeatherCatV1.12B45,2013-04-05 09:32:00,
2013-04-05 02:37:00,47.3,40.8,29.79,SSW,194,0.0,0.0,78,0.00,,,0.00,WeatherCatV1.12B45,2013-04-05 09:37:00,
2013-04-05 02:42:00,47.3,41.1,29.79,East,87,0.0,3.6,79,0.00,,,0.00,WeatherCatV1.12B45,2013-04-05 09:42:00,
2013-04-05 02:47:00,47.3,41.4,29.79,South,183,0.0,4.0,80,0.00,,,0.00,WeatherCatV1.12B45,2013-04-05 09:47:00,
2013-04-05 02:52:00,47.1,41.3,29.79,WSW,244,0.0,0.0,80,0.00,,,0.00,WeatherCatV1.12B45,2013-04-05 09:52:00,
2013-04-05 02:57:00,46.8,40.9,29.79,SW,223,2.7,2.7,80,0.00,,,0.00,WeatherCatV1.12B45,2013-04-05 09:57:00,
2013-04-05 03:02:00,46.6,40.7,29.79,SSW,205,0.0,0.0,80,0.00,,,0.00,WeatherCatV1.12B45,2013-04-05 10:02:00,
2013-04-05 03:07:00,46.6,41.1,29.79,NE,49,0.0,0.0,81,0.00,,,0.00,WeatherCatV1.12B45,2013-04-05 10:07:00,
2013-04-05 03:12:00,46.4,41.2,29.79,NE,49,0.0,0.0,82,0.00,,,0.00,WeatherCatV1.12B45,2013-04-05 10:12:00,
2013-04-05 03:17:00,46.4,41.2,29.79,West,262,0.0,2.2,82,0.00,,,0.00,WeatherCatV1.12B45,2013-04-05 10:17:00,
2013-04-05 03:22:00,46.6,41.7,29.79,ESE,123,0.0,0.0,83,0.00,,,0.00,WeatherCatV1.12B45,2013-04-05 10:22:00,
2013-04-05 03:27:00,46.6,41.7,29.79,SW,216,0.0,0.0,83,0.00,,,0.00,WeatherCatV1.12B45,2013-04-05 10:27:00,
2013-04-05 03:32:00,46.6,41.7,29.79,East,81,0.0,0.0,83,0.00,,,0.00,WeatherCatV1.12B45,2013-04-05 10:32:00,
2013-04-05 03:37:00,46.6,41.7,29.79,East,81,0.0,0.0,83,0.00,,,0.00,WeatherCatV1.12B45,2013-04-05 10:37:00,
2013-04-05 03:42:00,46.6,41.7,29.79,ESE,119,0.0,0.0,83,0.00,,,0.00,WeatherCatV1.12B45,2013-04-05 10:42:00,
2013-04-05 03:47:00,46.4,41.5,29.79,ESE,119,0.0,0.0,83,0.00,,,0.00,WeatherCatV1.12B45,2013-04-05 10:47:00,
2013-04-05 03:52:00,46.2,41.7,29.79,ESE,119,0.0,0.0,84,0.00,,,0.00,WeatherCatV1.12B45,2013-04-05 10:52:00,
2013-04-05 03:57:00,46.0,41.5,29.79,ESE,120,0.0,0.0,84,0.00,,,0.00,WeatherCatV1.12B45,2013-04-05 10:57:00,
2013-04-05 04:02:00,45.9,41.3,29.79,SE,142,0.0,0.0,84,0.00,,,0.00,WeatherCatV1.12B45,2013-04-05 11:02:00,
2013-04-05 04:07:00,45.5,40.6,29.79,SE,142,0.0,0.0,83,0.00,,,0.00,WeatherCatV1.12B45,2013-04-05 11:07:00,
2013-04-05 04:12:00,45.5,41.0,29.79,West,261,0.0,2.2,84,0.00,,,0.00,WeatherCatV1.12B45,2013-04-05 11:12:00,
2013-04-05 04:17:00,45.9,41.3,29.79,ESE,103,4.0,4.9,84,0.00,,,0.00,WeatherCatV1.12B45,2013-04-05 11:17:00,
2013-04-05 04:22:00,46.0,41.8,29.79,SW,232,0.0,0.0,85,0.00,,,0.00,WeatherCatV1.12B45,2013-04-05 11:22:00,
2013-04-05 04:27:00,46.2,42.0,29.79,South,177,0.0,0.0,85,0.00,,,0.00,WeatherCatV1.12B45,2013-04-05 11:27:00,
2013-04-05 04:32:00,46.2,42.0,29.79,SW,232,0.0,0.0,85,0.00,,,0.00,WeatherCatV1.12B45,2013-04-05 11:32:00,
2013-04-05 04:37:00,46.0,41.5,29.79,SSW,210,0.0,0.0,84,0.00,,,0.00,WeatherCatV1.12B45,2013-04-05 11:37:00,
2013-04-05 04:43:00,45.9,41.3,29.79,South,187,0.0,2.2,84,0.00,,,0.00,WeatherCatV1.12B45,2013-04-05 11:43:00,
2013-04-05 04:48:00,45.9,41.3,29.79,ESE,112,0.0,0.0,84,0.00,,,0.00,WeatherCatV1.12B45,2013-04-05 11:48:00,
2013-04-05 04:53:00,45.7,41.1,29.79,WSW,258,0.0,0.0,84,0.00,,,0.00,WeatherCatV1.12B45,2013-04-05 11:53:00,
2013-04-05 04:58:00,45.5,41.0,29.79,WSW,258,0.0,0.0,84,0.00,,,0.00,WeatherCatV1.12B45,2013-04-05 11:58:00,
2013-04-05 05:03:00,45.5,41.0,29.79,WSW,258,0.0,0.0,84,0.00,,,0.00,WeatherCatV1.12B45,2013-04-05 12:03:00,
2013-04-05 05:08:00,45.9,41.6,29.79,North,7,0.0,0.0,85,0.00,,,0.00,WeatherCatV1.12B45,2013-04-05 12:08:00,
2013-04-05 05:13:00,45.9,41.6,29.79,WNW,300,0.0,0.0,85,0.00,,,0.00,WeatherCatV1.12B45,2013-04-05 12:13:00,
2013-04-05 05:17:00,45.7,41.4,29.79,WNW,300,0.0,0.0,85,0.00,,,0.00,WeatherCatV1.12B45,2013-04-05 12:17:00,
2013-04-05 05:22:00,45.3,40.8,29.79,WNW,300,0.0,0.0,84,0.00,,,0.00,WeatherCatV1.12B45,2013-04-05 12:22:00,
2013-04-05 05:27:00,44.6,39.8,29.79,SW,216,0.0,0.0,83,0.00,,,0.00,WeatherCatV1.12B45,2013-04-05 12:27:00,
2013-04-05 05:32:00,44.6,39.8,29.79,SW,216,0.0,0.0,83,0.00,,,0.00,WeatherCatV1.12B45,2013-04-05 12:32:00,
2013-04-05 05:38:00,44.4,39.9,29.79,SW,216,0.0,0.0,84,0.00,,,0.00,WeatherCatV1.12B45,2013-04-05 12:38:00,
2013-04-05 05:43:00,44.1,39.2,29.79,SW,216,0.0,0.0,83,0.00,,,0.00,WeatherCatV1.12B45,2013-04-05 12:43:00,
2013-04-05 05:48:00,43.7,38.9,29.79,SE,129,0.0,0.0,83,0.00,,,0.00,WeatherCatV1.12B45,2013-04-05 12:48:00,
2013-04-05 05:53:00,43.7,39.2,29.79,ESE,110,0.0,0.0,84,0.00,,,0.00,WeatherCatV1.12B45,2013-04-05 12:53:00,
2013-04-05 05:58:00,44.1,39.5,29.79,East,80,2.2,3.6,84,0.00,,,0.00,WeatherCatV1.12B45,2013-04-05 12:58:00,
2013-04-05 06:03:00,44.2,40.0,29.79,WSW,237,0.0,0.0,85,0.00,,,0.00,WeatherCatV1.12B45,2013-04-05 13:03:00,
2013-04-05 06:08:00,44.2,40.0,29.79,SW,232,0.0,0.0,85,0.00,,,0.00,WeatherCatV1.12B45,2013-04-05 13:08:00,
2013-04-05 06:13:00,44.2,40.0,29.79,SW,230,0.0,0.0,85,0.00,,,0.00,WeatherCatV1.12B45,2013-04-05 13:13:00,
2013-04-05 06:18:00,44.1,39.8,29.79,SE,126,0.0,0.0,85,0.00,,,0.00,WeatherCatV1.12B45,2013-04-05 13:18:00,
2013-04-05 06:23:00,44.2,40.0,29.79,SW,230,0.0,3.6,85,0.00,,,0.00,WeatherCatV1.12B45,2013-04-05 13:23:00,
2013-04-05 06:28:00,44.6,40.7,29.79,SSW,193,3.6,3.6,86,0.00,,,0.00,WeatherCatV1.12B45,2013-04-05 13:28:00,
2013-04-05 06:33:00,45.0,41.0,29.79,South,188,0.0,0.0,86,0.00,,,0.00,WeatherCatV1.12B45,2013-04-05 13:33:00,
2013-04-05 06:38:00,45.3,41.7,29.79,SSW,205,0.0,4.0,87,0.00,,,0.00,WeatherCatV1.12B45,2013-04-05 13:38:00,
2013-04-05 06:43:00,45.5,41.9,29.79,SSW,207,0.0,0.0,87,0.00,,,0.00,WeatherCatV1.12B45,2013-04-05 13:43:00,
2013-04-05 06:48:00,45.7,41.7,29.79,SSW,203,0.0,4.0,86,0.00,,,0.00,WeatherCatV1.12B45,2013-04-05 13:48:00,
2013-04-05 06:53:00,46.2,42.0,29.79,NE,34,2.7,5.4,85,0.00,,,0.00,WeatherCatV1.12B45,2013-04-05 13:53:00,
2013-04-05 06:58:00,46.6,41.4,29.79,South,185,0.0,0.0,82,0.00,,,0.00,WeatherCatV1.12B45,2013-04-05 13:58:00,
2013-04-05 07:03:00,46.6,40.1,29.79,SSW,202,2.2,2.7,78,0.00,,,0.00,WeatherCatV1.12B45,2013-04-05 14:03:00,
2013-04-05 07:08:00,46.4,38.6,29.79,ESE,112,0.0,3.1,74,0.00,,,0.00,WeatherCatV1.12B45,2013-04-05 14:08:00,
2013-04-05 07:13:00,46.6,38.0,29.79,South,183,0.0,4.9,72,0.00,,,0.00,WeatherCatV1.12B45,2013-04-05 14:13:00,
2013-04-05 07:18:00,46.8,37.9,29.79,SW,220,0.0,0.0,71,0.00,,,0.00,WeatherCatV1.12B45,2013-04-05 14:18:00,
2013-04-05 07:23:00,46.9,37.3,29.79,ENE,69,0.0,2.7,69,0.00,,,0.00,WeatherCatV1.12B45,2013-04-05 14:23:00,
2013-04-05 07:28:00,47.3,36.9,29.79,ENE,74,0.0,4.0,67,0.00,,,0.00,WeatherCatV1.12B45,2013-04-05 14:28:00,
2013-04-05 07:33:00,47.8,37.0,29.79,WSW,242,2.2,5.4,66,0.00,,,0.00,WeatherCatV1.12B45,2013-04-05 14:33:00,
2013-04-05 07:38:00,48.4,37.6,29.79,South,187,3.6,4.9,66,0.00,,,0.00,WeatherCatV1.12B45,2013-04-05 14:38:00,
2013-04-05 07:43:00,48.4,36.4,29.79,South,181,2.7,8.1,63,0.00,,,0.00,WeatherCatV1.12B45,2013-04-05 14:43:00,
2013-04-05 07:48:00,48.4,36.0,29.79,SW,233,3.1,3.1,62,0.00,,,0.00,WeatherCatV1.12B45,2013-04-05 14:48:00,
2013-04-05 07:53:00,48.4,35.1,29.79,South,172,0.0,5.8,60,0.00,,,0.00,WeatherCatV1.12B45,2013-04-05 14:53:00,
2013-04-05 07:58:00,48.7,35.5,29.79,West,264,0.0,0.0,60,0.00,,,0.00,WeatherCatV1.12B45,2013-04-05 14:58:00,
2013-04-05 08:03:00,48.9,35.2,29.79,South,182,0.0,0.0,59,0.00,,,0.00,WeatherCatV1.12B45,2013-04-05 15:03:00,
2013-04-05 08:08:00,48.9,35.7,29.79,SW,221,0.0,2.2,60,0.00,,,0.00,WeatherCatV1.12B45,2013-04-05 15:08:00,
2013-04-05 08:13:00,48.6,33.6,29.79,West,266,0.0,2.7,56,0.00,,,0.00,WeatherCatV1.12B45,2013-04-05 15:13:00,
2013-04-05 08:18:00,48.2,33.2,29.79,SW,224,0.0,4.0,56,0.00,,,0.00,WeatherCatV1.12B45,2013-04-05 15:18:00,
2013-04-05 08:23:00,48.2,33.2,29.79,ESE,104,2.7,2.7,56,0.00,,,0.00,WeatherCatV1.12B45,2013-04-05 15:23:00,
2013-04-05 08:28:00,47.7,33.6,29.79,SE,131,0.0,2.7,58,0.00,,,0.00,WeatherCatV1.12B45,2013-04-05 15:28:00,
2013-04-05 08:33:00,47.3,33.7,29.79,WSW,241,0.0,0.0,59,0.00,,,0.00,WeatherCatV1.12B45,2013-04-05 15:33:00,
2013-04-05 08:38:00,47.1,34.8,29.79,South,188,0.0,0.0,62,0.00,,,0.00,WeatherCatV1.12B45,2013-04-05 15:38:00,
2013-04-05 08:43:00,46.9,35.4,29.79,WSW,249,2.2,3.1,64,0.00,,,0.00,WeatherCatV1.12B45,2013-04-05 15:43:00,
2013-04-05 08:48:00,47.1,37.1,29.82,South,190,0.0,2.7,68,0.00,,,0.00,WeatherCatV1.12B45,2013-04-05 15:48:00,
2013-04-05 08:53:00,46.9,36.9,29.82,SE,125,0.0,4.0,68,0.00,,,0.00,WeatherCatV1.12B45,2013-04-05 15:53:00,
2013-04-05 08:58:00,47.1,37.1,29.82,WSW,242,5.4,8.3,68,0.00,,,0.00,WeatherCatV1.12B45,2013-04-05 15:58:00,
2013-04-05 09:03:00,47.1,37.5,29.82,SSW,202,0.0,6.3,69,0.00,,,0.00,WeatherCatV1.12B45,2013-04-05 16:03:00,
2013-04-05 09:08:00,46.9,37.7,29.82,ESE,108,3.6,8.1,70,0.00,,,0.00,WeatherCatV1.12B45,2013-04-05 16:08:00,
2013-04-05 09:13:00,47.1,37.8,29.82,SSE,147,4.0,4.0,70,0.00,,,0.00,WeatherCatV1.12B45,2013-04-05 16:13:00,
2013-04-05 09:18:00,47.1,37.8,29.79,East,83,3.1,6.3,70,0.00,,,0.00,WeatherCatV1.12B45,2013-04-05 16:18:00,
2013-04-05 09:23:00,47.3,38.7,29.79,SW,233,2.7,2.7,72,0.00,,,0.00,WeatherCatV1.12B45,2013-04-05 16:23:00,
2013-04-05 09:28:00,47.3,38.7,29.79,SW,224,2.2,5.8,72,0.00,,,0.00,WeatherCatV1.12B45,2013-04-05 16:28:00,
2013-04-05 09:33:00,47.1,38.2,29.79,ESE,109,0.0,8.3,71,0.00,,,0.00,WeatherCatV1.12B45,2013-04-05 16:33:00,
2013-04-05 09:38:00,47.3,38.4,29.79,SW,216,4.9,4.9,71,0.00,,,0.00,WeatherCatV1.12B45,2013-04-05 16:38:00,
2013-04-05 09:43:00,47.3,38.4,29.79,West,281,4.0,8.1,71,0.00,,,0.00,WeatherCatV1.12B45,2013-04-05 16:43:00,
2013-04-05 09:48:00,47.1,38.2,29.79,SW,235,0.0,3.1,71,0.00,,,0.00,WeatherCatV1.12B45,2013-04-05 16:48:00,
2013-04-05 09:53:00,47.1,37.8,29.79,South,185,3.1,5.4,70,0.00,,,0.00,WeatherCatV1.12B45,2013-04-05 16:53:00,
2013-04-05 09:58:00,47.3,38.0,29.79,NNW,341,0.0,5.8,70,0.00,,,0.00,WeatherCatV1.12B45,2013-04-05 16:58:00,
2013-04-05 10:03:00,47.7,39.1,29.79,ESE,116,0.0,2.7,72,0.00,,,0.00,WeatherCatV1.12B45,2013-04-05 17:03:00,
2013-04-05 10:08:00,47.7,38.0,29.79,South,169,5.4,9.6,69,0.00,,,0.00,WeatherCatV1.12B45,2013-04-05 17:08:00,
2013-04-05 10:13:00,47.7,37.2,29.79,WNW,299,0.0,7.6,67,0.00,,,0.00,WeatherCatV1.12B45,2013-04-05 17:13:00,
2013-04-05 10:18:00,47.7,36.5,29.79,SW,234,5.4,5.8,65,0.00,,,0.00,WeatherCatV1.12B45,2013-04-05 17:18:00,
2013-04-05 10:23:00,47.7,36.1,29.79,ESE,115,0.0,2.7,64,0.00,,,0.00,WeatherCatV1.12B45,2013-04-05 17:23:00,
2013-04-05 10:28:00,47.8,36.3,29.79,South,169,3.1,5.4,64,0.00,,,0.00,WeatherCatV1.12B45,2013-04-05 17:28:00,
2013-04-05 10:33:00,48.2,35.0,29.82,SSE,166,3.1,5.8,60,0.00,,,0.00,WeatherCatV1.12B45,2013-04-05 17:33:00,
2013-04-05 10:38:00,48.4,35.1,29.82,East,93,3.6,7.2,60,0.00,,,0.00,WeatherCatV1.12B45,2013-04-05 17:38:00,
2013-04-05 10:43:00,48.7,35.1,29.82,SW,214,7.6,7.6,59,0.00,,,0.00,WeatherCatV1.12B45,2013-04-05 17:43:00,
2013-04-05 10:48:00,48.9,33.5,29.82,SW,234,3.1,5.4,55,0.00,,,0.00,WeatherCatV1.12B45,2013-04-05 17:48:00,
2013-04-05 10:53:00,49.1,33.6,29.82,NNE,33,3.6,8.7,55,0.00,,,0.00,WeatherCatV1.12B45,2013-04-05 17:53:00,
2013-04-05 10:58:00,49.6,34.1,29.82,SSW,194,4.0,4.0,55,0.00,,,0.00,WeatherCatV1.12B45,2013-04-05 17:58:00,
2013-04-05 11:03:00,49.8,33.4,29.82,East,99,3.6,7.6,53,0.00,,,0.00,WeatherCatV1.12B45,2013-04-05 18:03:00,
2013-04-05 11:08:00,49.8,33.4,29.82,SE,131,4.9,4.9,53,0.00,,,0.00,WeatherCatV1.12B45,2013-04-05 18:08:00,
2013-04-05 11:13:00,50.2,34.2,29.82,WNW,300,7.2,7.2,54,0.00,,,0.00,WeatherCatV1.12B45,2013-04-05 18:13:00,
2013-04-05 11:18:00,50.0,33.1,29.82,SSE,155,4.0,7.6,52,0.00,,,0.00,WeatherCatV1.12B45,2013-04-05 18:18:00,
2013-04-05 11:23:00,50.2,32.8,29.82,ENE,63,2.7,2.7,51,0.00,,,0.00,WeatherCatV1.12B45,2013-04-05 18:23:00,
2013-04-05 11:28:00,50.5,32.6,29.82,NW,307,4.0,4.9,50,0.00,,,0.00,WeatherCatV1.12B45,2013-04-05 18:28:00,
2013-04-05 11:33:00,50.7,32.8,29.82,NE,56,4.9,4.9,50,0.00,,,0.00,WeatherCatV1.12B45,2013-04-05 18:33:00,
2013-04-05 11:38:00,50.9,32.9,29.82,WSW,247,4.0,4.9,50,0.00,,,0.00,WeatherCatV1.12B45,2013-04-05 18:38:00,
2013-04-05 11:43:00,50.9,32.4,29.82,WNW,285,4.0,5.4,49,0.00,,,0.00,WeatherCatV1.12B45,2013-04-05 18:43:00,
2013-04-05 11:48:00,51.3,32.8,29.82,SW,229,2.7,5.4,49,0.00,,,0.00,WeatherCatV1.12B45,2013-04-05 18:48:00,
2013-04-05 11:53:00,51.4,32.9,29.82,WSW,239,6.3,8.3,49,0.00,,,0.00,WeatherCatV1.12B45,2013-04-05 18:53:00,
2013-04-05 11:58:00,51.4,32.4,29.82,South,185,5.8,5.8,48,0.00,,,0.00,WeatherCatV1.12B45,2013-04-05 18:58:00,
2013-04-05 12:03:00,51.6,32.6,29.82,WNW,285,4.0,11.0,48,0.00,,,0.00,WeatherCatV1.12B45,2013-04-05 19:03:00,
2013-04-05 12:08:00,51.6,32.1,29.82,SSE,157,3.6,9.2,47,0.00,,,0.00,WeatherCatV1.12B45,2013-04-05 19:08:00,
2013-04-05 12:13:00,52.0,32.4,29.82,South,181,2.7,12.3,47,0.00,,,0.00,WeatherCatV1.12B45,2013-04-05 19:13:00,
2013-04-05 12:18:00,52.5,32.9,29.82,ESE,122,5.4,8.1,47,0.00,,,0.00,WeatherCatV1.12B45,2013-04-05 19:18:00,
2013-04-05 12:23:00,53.1,33.4,29.82,West,267,6.3,6.3,47,0.00,,,0.00,WeatherCatV1.12B45,2013-04-05 19:23:00,
2013-04-05 12:28:00,53.4,33.2,29.82,SSW,200,8.3,8.3,46,0.00,,,0.00,WeatherCatV1.12B45,2013-04-05 19:28:00,
2013-04-05 12:33:00,54.0,33.1,29.82,SSW,210,3.6,7.2,45,0.00,,,0.00,WeatherCatV1.12B45,2013-04-05 19:33:00,
2013-04-05 12:38:00,54.3,32.9,29.82,NW,318,2.2,5.4,44,0.00,,,0.00,WeatherCatV1.12B45,2013-04-05 19:38:00,
2013-04-05 12:43:00,54.5,32.5,29.82,WSW,239,6.3,8.7,43,0.00,,,0.00,WeatherCatV1.12B45,2013-04-05 19:43:00,
2013-04-05 12:48:00,55.0,33.5,29.82,WNW,282,4.5,7.6,44,0.00,,,0.00,WeatherCatV1.12B45,2013-04-05 19:48:00,
2013-04-05 12:53:00,55.6,32.9,29.82,SW,225,4.0,6.3,42,0.00,,,0.00,WeatherCatV1.12B45,2013-04-05 19:53:00,
2013-04-05 12:58:00,55.9,33.2,29.82,SE,133,2.7,5.8,42,0.00,,,0.00,WeatherCatV1.12B45,2013-04-05 19:58:00,
2013-04-05 13:03:00,55.9,32.6,29.82,South,180,8.1,8.3,41,0.00,,,0.00,WeatherCatV1.12B45,2013-04-05 20:03:00,
2013-04-05 13:08:00,56.5,32.5,29.82,WSW,244,4.0,11.0,40,0.00,,,0.00,WeatherCatV1.12B45,2013-04-05 20:08:00,
2013-04-05 13:13:00,56.5,31.8,29.82,South,183,4.9,9.6,39,0.00,,,0.00,WeatherCatV1.12B45,2013-04-05 20:13:00,
2013-04-05 13:18:00,57.0,32.3,29.82,NNE,27,3.6,4.0,39,0.00,,,0.00,WeatherCatV1.12B45,2013-04-05 20:18:00,
2013-04-05 13:23:00,58.1,33.9,29.82,South,186,0.0,6.3,40,0.00,,,0.00,WeatherCatV1.12B45,2013-04-05 20:23:00,
2013-04-05 13:28:00,59.2,33.6,29.82,West,272,8.7,8.7,38,0.00,,,0.00,WeatherCatV1.12B45,2013-04-05 20:28:00,
2013-04-05 13:33:00,59.9,32.9,29.82,NW,304,0.0,9.2,36,0.00,,,0.00,WeatherCatV1.12B45,2013-04-05 20:33:00,
2013-04-05 13:38:00,60.6,34.2,29.82,West,278,3.1,5.8,37,0.00,,,0.00,WeatherCatV1.12B45,2013-04-05 20:38:00,
2013-04-05 13:43:00,61.9,33.9,29.82,SE,124,0.0,5.4,35,0.00,,,0.00,WeatherCatV1.12B45,2013-04-05 20:43:00,
2013-04-05 13:48:00,62.4,33.7,29.82,West,273,3.1,8.1,34,0.00,,,0.00,WeatherCatV1.12B45,2013-04-05 20:48:00,
2013-04-05 13:53:00,62.6,33.1,29.82,SSE,168,2.7,12.8,33,0.00,,,0.00,WeatherCatV1.12B45,2013-04-05 20:53:00,
2013-04-05 13:58:00,61.3,32.0,29.82,South,183,3.6,8.1,33,0.00,,,0.00,WeatherCatV1.12B45,2013-04-05 20:58:00,
2013-04-05 14:03:00,61.9,31.7,29.82,WNW,301,3.1,6.3,32,0.00,,,0.00,WeatherCatV1.12B45,2013-04-05 21:03:00,
2013-04-05 14:08:00,61.5,30.6,29.82,SW,235,6.3,10.5,31,0.00,,,0.00,WeatherCatV1.12B45,2013-04-05 21:08:00,
2013-04-05 14:13:00,61.0,31.7,29.82,WSW,245,5.8,10.5,33,0.00,,,0.00,WeatherCatV1.12B45,2013-04-05 21:13:00,
2013-04-05 14:18:00,61.3,30.4,29.82,WSW,252,10.5,15.0,31,0.00,,,0.00,WeatherCatV1.12B45,2013-04-05 21:18:00,
2013-04-05 14:23:00,61.9,31.7,29.82,SE,131,7.6,10.5,32,0.00,,,0.00,WeatherCatV1.12B45,2013-04-05 21:23:00,
2013-04-05 14:28:00,61.9,30.9,29.82,NW,324,3.6,10.1,31,0.00,,,0.00,WeatherCatV1.12B45,2013-04-05 21:28:00,
2013-04-05 14:33:00,60.8,29.2,29.82,SSW,192,8.1,11.4,30,0.00,,,0.00,WeatherCatV1.12B45,2013-04-05 21:33:00,
2013-04-05 14:38:00,60.1,28.5,29.82,WSW,254,4.5,5.8,30,0.00,,,0.00,WeatherCatV1.12B45,2013-04-05 21:38:00,
2013-04-05 14:43:00,59.9,30.0,29.82,NW,324,3.1,13.2,32,0.00,,,0.00,WeatherCatV1.12B45,2013-04-05 21:43:00,
2013-04-05 14:48:00,59.9,29.2,29.82,SSW,213,4.9,5.4,31,0.00,,,0.00,WeatherCatV1.12B45,2013-04-05 21:48:00,
2013-04-05 14:53:00,60.3,30.3,29.82,WNW,295,0.0,5.8,32,0.00,,,0.00,WeatherCatV1.12B45,2013-04-05 21:53:00,
2013-04-05 14:58:00,60.6,29.0,29.82,SSW,199,6.3,13.2,30,0.00,,,0.00,WeatherCatV1.12B45,2013-04-05 21:58:00,
2013-04-05 15:03:00,60.1,28.5,29.82,North,0,2.7,12.8,30,0.00,,,0.00,WeatherCatV1.12B45,2013-04-05 22:03:00,
2013-04-05 15:08:00,59.9,28.4,29.82,WNW,291,4.0,8.3,30,0.00,,,0.00,WeatherCatV1.12B45,2013-04-05 22:08:00,
2013-04-05 15:13:00,59.7,28.2,29.82,North,353,3.1,4.0,30,0.00,,,0.00,WeatherCatV1.12B45,2013-04-05 22:13:00,
2013-04-05 15:18:00,59.9,29.2,29.82,NE,41,3.6,4.0,31,0.00,,,0.00,WeatherCatV1.12B45,2013-04-05 22:18:00,
2013-04-05 15:23:00,59.7,29.0,29.82,SW,220,4.9,5.8,31,0.00,,,0.00,WeatherCatV1.12B45,2013-04-05 22:23:00,
2013-04-05 15:28:00,59.5,28.1,29.82,South,182,0.0,5.8,30,0.00,,,0.00,WeatherCatV1.12B45,2013-04-05 22:28:00,
2013-04-05 15:33:00,59.0,29.2,29.82,NNE,28,5.4,10.5,32,0.00,,,0.00,WeatherCatV1.12B45,2013-04-05 22:33:00,
2013-04-05 15:38:00,58.6,30.4,29.82,West,266,3.6,3.6,34,0.00,,,0.00,WeatherCatV1.12B45,2013-04-05 22:38:00,
2013-04-05 15:43:00,58.6,30.4,29.82,North,353,2.2,5.8,34,0.00,,,0.00,WeatherCatV1.12B45,2013-04-05 22:43:00,
2013-04-05 15:48:00,59.5,31.1,29.82,North,0,4.0,4.0,34,0.00,,,0.00,WeatherCatV1.12B45,2013-04-05 22:48:00,
2013-04-05 15:53:00,59.7,29.8,29.82,West,268,4.0,4.0,32,0.00,,,0.00,WeatherCatV1.12B45,2013-04-05 22:53:00,
2013-04-05 15:58:00,59.4,30.3,29.82,ENE,64,5.8,5.8,33,0.00,,,0.00,WeatherCatV1.12B45,2013-04-05 22:58:00,
2013-04-05 16:03:00,58.6,30.4,29.82,SSE,153,2.7,4.5,34,0.00,,,0.00,WeatherCatV1.12B45,2013-04-05 23:03:00,
2013-04-05 16:08:00,58.3,30.8,29.82,SSE,150,3.1,3.1,35,0.00,,,0.00,WeatherCatV1.12B45,2013-04-05 23:08:00,
2013-04-05 16:13:00,58.3,30.8,29.82,WNW,303,5.4,5.8,35,0.00,,,0.00,WeatherCatV1.12B45,2013-04-05 23:13:00,
2013-04-05 16:18:00,58.8,31.2,29.82,SW,217,5.4,8.7,35,0.00,,,0.00,WeatherCatV1.12B45,2013-04-05 23:18:00,
2013-04-05 16:23:00,58.8,31.2,29.82,SSW,192,6.3,8.1,35,0.00,,,0.00,WeatherCatV1.12B45,2013-04-05 23:23:00,
2013-04-05 16:28:00,58.1,29.9,29.82,WSW,252,4.0,8.1,34,0.00,,,0.00,WeatherCatV1.12B45,2013-04-05 23:28:00,
2013-04-05 16:33:00,57.9,30.4,29.82,ENE,77,2.7,5.8,35,0.00,,,0.00,WeatherCatV1.12B45,2013-04-05 23:33:00,
2013-04-05 16:38:00,58.1,30.6,29.82,WNW,284,0.0,0.0,35,0.00,,,0.00,WeatherCatV1.12B45,2013-04-05 23:38:00,
2013-04-05 16:43:00,58.1,30.6,29.82,North,3,0.0,3.6,35,0.00,,,0.00,WeatherCatV1.12B45,2013-04-05 23:43:00,
2013-04-05 16:48:00,58.1,29.9,29.82,NW,320,0.0,2.7,34,0.00,,,0.00,WeatherCatV1.12B45,2013-04-05 23:48:00,
2013-04-05 16:53:00,58.1,30.6,29.82,NNE,29,3.1,5.8,35,0.00,,,0.00,WeatherCatV1.12B45,2013-04-05 23:53:00,
2013-04-05 16:58:00,58.3,29.3,29.82,NNW,346,4.0,5.4,33,0.00,,,0.00,WeatherCatV1.12B45,2013-04-05 23:58:00,
2013-04-05 17:03:00,58.6,28.1,29.82,NW,311,4.0,4.0,31,0.00,,,0.00,WeatherCatV1.12B45,2013-04-06 00:03:00,
2013-04-05 17:08:00,58.6,28.9,29.82,SW,231,2.7,5.8,32,0.00,,,0.00,WeatherCatV1.12B45,2013-04-06 00:08:00,
2013-04-05 17:13:00,58.1,29.2,29.82,NNW,339,0.0,4.9,33,0.00,,,0.00,WeatherCatV1.12B45,2013-04-06 00:13:00,
2013-04-05 17:18:00,55.6,28.4,29.82,East,84,2.7,4.9,35,0.00,,,0.00,WeatherCatV1.12B45,2013-04-06 00:18:00,
2013-04-05 17:23:00,54.5,28.1,29.82,South,191,3.6,3.6,36,0.00,,,0.00,WeatherCatV1.12B45,2013-04-06 00:23:00,
2013-04-05 17:28:00,54.7,28.9,29.82,WNW,297,3.6,5.4,37,0.00,,,0.00,WeatherCatV1.12B45,2013-04-06 00:28:00,
2013-04-05 17:33:00,53.1,32.8,29.82,NW,316,0.0,5.4,46,0.00,,,0.00,WeatherCatV1.12B45,2013-04-06 00:33:00,
2013-04-05 17:38:00,52.0,32.4,29.82,South,183,2.2,4.0,47,0.00,,,0.00,WeatherCatV1.12B45,2013-04-06 00:38:00,
2013-04-05 17:43:00,51.8,32.7,29.82,South,183,0.0,0.0,48,0.00,,,0.00,WeatherCatV1.12B45,2013-04-06 00:43:00,
2013-04-05 17:48:00,51.8,32.2,29.82,South,183,0.0,0.0,47,0.00,,,0.00,WeatherCatV1.12B45,2013-04-06 00:48:00,
2013-04-05 17:53:00,52.0,31.9,29.82,South,183,0.0,0.0,46,0.00,,,0.00,WeatherCatV1.12B45,2013-04-06 00:53:00,
2013-04-05 17:58:00,52.3,33.2,29.82,South,183,0.0,0.0,48,0.00,,,0.00,WeatherCatV1.12B45,2013-04-06 00:58:00,
2013-04-05 18:03:00,52.5,34.4,29.82,NW,320,0.0,3.1,50,0.00,,,0.00,WeatherCatV1.12B45,2013-04-06 01:03:00,
2013-04-05 18:08:00,52.7,30.8,29.82,West,280,4.0,10.1,43,0.00,,,0.00,WeatherCatV1.12B45,2013-04-06 01:08:00,
2013-04-05 18:13:00,53.6,32.2,29.82,NW,314,2.2,3.1,44,0.00,,,0.00,WeatherCatV1.12B45,2013-04-06 01:13:00,
2013-04-05 18:18:00,54.1,31.0,29.82,NW,316,3.6,5.4,41,0.00,,,0.00,WeatherCatV1.12B45,2013-04-06 01:18:00,
2013-04-05 18:23:00,53.8,30.0,29.82,North,0,0.0,0.0,40,0.00,,,0.00,WeatherCatV1.12B45,2013-04-06 01:23:00,
2013-04-05 18:28:00,53.4,30.3,29.82,North,0,0.0,0.0,41,0.00,,,0.00,WeatherCatV1.12B45,2013-04-06 01:28:00,
2013-04-05 18:33:00,52.9,31.0,29.82,North,0,0.0,0.0,43,0.00,,,0.00,WeatherCatV1.12B45,2013-04-06 01:33:00,
2013-04-05 18:38:00,52.2,32.5,29.82,North,0,0.0,0.0,47,0.00,,,0.00,WeatherCatV1.12B45,2013-04-06 01:38:00,
2013-04-05 18:43:00,51.8,32.2,29.82,SW,222,0.0,0.0,47,0.00,,,0.00,WeatherCatV1.12B45,2013-04-06 01:43:00,
2013-04-05 18:48:00,51.6,31.0,29.82,East,93,2.7,4.0,45,0.00,,,0.00,WeatherCatV1.12B45,2013-04-06 01:48:00,
2013-04-05 18:53:00,52.9,28.6,29.82,NNE,18,3.1,3.1,39,0.00,,,0.00,WeatherCatV1.12B45,2013-04-06 01:53:00,
2013-04-05 18:58:00,54.0,28.3,29.82,South,181,6.3,6.3,37,0.00,,,0.00,WeatherCatV1.12B45,2013-04-06 01:58:00,
2013-04-05 19:03:00,54.3,27.9,29.82,East,87,3.6,12.8,36,0.00,,,0.00,WeatherCatV1.12B45,2013-04-06 02:03:00,
2013-04-05 19:08:00,53.8,27.5,29.82,SW,214,3.1,4.0,36,0.00,,,0.00,WeatherCatV1.12B45,2013-04-06 02:08:00,
2013-04-05 19:13:00,53.4,27.8,29.82,SE,141,3.1,8.1,37,0.00,,,0.00,WeatherCatV1.12B45,2013-04-06 02:13:00,
2013-04-05 19:18:00,52.5,27.0,29.79,ENE,76,5.8,6.3,37,0.00,,,0.00,WeatherCatV1.12B45,2013-04-06 02:18:00,
2013-04-05 19:23:00,52.2,26.7,29.79,SSW,204,6.3,7.6,37,0.00,,,0.00,WeatherCatV1.12B45,2013-04-06 02:23:00,
2013-04-05 19:28:00,52.3,26.8,29.79,WSW,249,0.0,6.3,37,0.00,,,0.00,WeatherCatV1.12B45,2013-04-06 02:28:00,
2013-04-05 19:33:00,52.0,26.5,29.82,NW,308,3.1,3.6,37,0.00,,,0.00,WeatherCatV1.12B45,2013-04-06 02:33:00,
2013-04-05 19:38:00,51.8,26.4,29.82,SW,222,4.9,4.9,37,0.00,,,0.00,WeatherCatV1.12B45,2013-04-06 02:38:00,
2013-04-05 19:43:00,51.6,26.9,29.82,SW,229,2.2,3.1,38,0.00,,,0.00,WeatherCatV1.12B45,2013-04-06 02:43:00,
2013-04-05 19:48:00,51.1,26.4,29.82,North,11,3.6,3.6,38,0.00,,,0.00,WeatherCatV1.12B45,2013-04-06 02:48:00,
2013-04-05 19:53:00,50.7,26.0,29.82,WSW,246,2.2,3.6,38,0.00,,,0.00,WeatherCatV1.12B45,2013-04-06 02:53:00,
2013-04-05 19:58:00,50.5,26.5,29.82,East,81,3.1,3.1,39,0.00,,,0.00,WeatherCatV1.12B45,2013-04-06 02:58:00,
2013-04-05 20:03:00,50.5,26.5,29.79,WNW,287,2.7,4.0,39,0.00,,,0.00,WeatherCatV1.12B45,2013-04-06 03:03:00,
2013-04-05 20:08:00,50.7,26.0,29.79,East,85,0.0,2.2,38,0.00,,,0.00,WeatherCatV1.12B45,2013-04-06 03:08:00,
2013-04-05 20:13:00,50.9,26.2,29.79,West,265,0.0,4.9,38,0.00,,,0.00,WeatherCatV1.12B45,2013-04-06 03:13:00,
2013-04-05 20:18:00,51.1,26.4,29.82,NW,309,3.1,3.1,38,0.00,,,0.00,WeatherCatV1.12B45,2013-04-06 03:18:00,
2013-04-05 20:23:00,51.6,26.9,29.82,ENE,63,0.0,5.8,38,0.00,,,0.00,WeatherCatV1.12B45,2013-04-06 03:23:00,
2013-04-05 20:28:00,51.4,26.7,29.82,SW,228,0.0,2.7,38,0.00,,,0.00,WeatherCatV1.12B45,2013-04-06 03:28:00,
2013-04-05 20:33:00,51.3,26.5,29.82,ESE,111,0.0,4.0,38,0.00,,,0.00,WeatherCatV1.12B45,2013-04-06 03:33:00,
2013-04-05 20:38:00,51.1,26.4,29.82,NNE,12,2.2,5.4,38,0.00,,,0.00,WeatherCatV1.12B45,2013-04-06 03:38:00,
2013-04-05 20:43:00,51.1,26.4,29.82,SE,129,2.2,7.6,38,0.00,,,0.00,WeatherCatV1.12B45,2013-04-06 03:43:00,
2013-04-05 20:48:00,51.3,26.5,29.82,WNW,300,2.2,6.3,38,0.00,,,0.00,WeatherCatV1.12B45,2013-04-06 03:48:00,
2013-04-05 20:53:00,51.1,27.0,29.82,ESE,121,3.1,4.0,39,0.00,,,0.00,WeatherCatV1.12B45,2013-04-06 03:53:00,
2013-04-05 20:58:00,50.7,26.0,29.82,WNW,288,3.6,4.0,38,0.00,,,0.00,WeatherCatV1.12B45,2013-04-06 03:58:00,
2013-04-05 21:00:00,50.7,26.7,29.82,South,173,0.0,4.9,39,0.00,,,0.00,WeatherCatV1.12B45,2013-04-06 04:00:00,
2013-04-05 21:04:00,50.5,25.9,29.82,NE,49,0.0,2.2,38,0.00,,,0.00,WeatherCatV1.12B45,2013-04-06 04:04:00,
2013-04-05 21:06:00,50.4,26.4,29.82,SSE,153,2.7,3.6,39,0.00,,,0.00,WeatherCatV1.12B45,2013-04-06 04:06:00,
2013-04-05 21:11:00,50.2,26.2,29.82,SSE,166,0.0,0.0,39,0.00,,,0.00,WeatherCatV1.12B45,2013-04-06 04:11:00,
2013-04-05 21:14:00,50.0,26.0,29.82,SSE,166,0.0,0.0,39,0.00,,,0.00,WeatherCatV1.12B45,2013-04-06 04:14:00,
2013-04-05 21:19:00,49.5,26.2,29.82,SSE,165,0.0,0.0,40,0.00,,,0.00,WeatherCatV1.12B45,2013-04-06 04:19:00,
2013-04-05 21:24:00,49.1,26.4,29.82,SSE,166,0.0,0.0,41,0.00,,,0.00,WeatherCatV1.12B45,2013-04-06 04:24:00,
2013-04-05 21:29:00,48.7,26.7,29.82,East,80,0.0,2.7,42,0.00,,,0.00,WeatherCatV1.12B45,2013-04-06 04:29:00,
2013-04-05 21:34:00,48.6,27.1,29.82,South,169,2.2,3.6,43,0.00,,,0.00,WeatherCatV1.12B45,2013-04-06 04:34:00,
2013-04-05 21:39:00,48.7,27.3,29.82,South,187,2.2,3.6,43,0.00,,,0.00,WeatherCatV1.12B45,2013-04-06 04:39:00,
2013-04-05 21:44:00,48.7,27.3,29.82,South,182,3.1,3.1,43,0.00,,,0.00,WeatherCatV1.12B45,2013-04-06 04:44:00,
2013-04-05 21:49:00,48.9,26.8,29.85,ENE,65,3.1,3.1,42,0.00,,,0.00,WeatherCatV1.12B45,2013-04-06 04:49:00,
2013-04-05 21:54:00,48.7,27.3,29.85,South,178,0.0,0.0,43,0.00,,,0.00,WeatherCatV1.12B45,2013-04-06 04:54:00,
2013-04-05 21:59:00,48.7,27.3,29.85,South,183,3.1,3.1,43,0.00,,,0.00,WeatherCatV1.12B45,2013-04-06 04:59:00,
2013-04-05 22:04:00,48.9,27.4,29.85,SSW,202,2.7,4.9,43,0.00,,,0.00,WeatherCatV1.12B45,2013-04-06 05:04:00,
2013-04-05 22:09:00,48.9,27.4,29.85,SE,131,0.0,3.1,43,0.00,,,0.00,WeatherCatV1.12B45,2013-04-06 05:09:00,
2013-04-05 22:14:00,48.9,27.4,29.85,SSE,166,3.1,3.6,43,0.00,,,0.00,WeatherCatV1.12B45,2013-04-06 05:14:00,
2013-04-05 22:19:00,48.9,27.4,29.85,SE,139,0.0,0.0,43,0.00,,,0.00,WeatherCatV1.12B45,2013-04-06 05:19:00,
2013-04-05 22:24:00,48.9,27.4,29.85,SSW,196,0.0,0.0,43,0.00,,,0.00,WeatherCatV1.12B45,2013-04-06 05:24:00,
2013-04-05 22:29:00,48.9,27.4,29.85,SSW,212,3.6,3.6,43,0.00,,,0.00,WeatherCatV1.12B45,2013-04-06 05:29:00,
2013-04-05 22:34:00,48.9,27.4,29.85,SSW,206,3.1,3.6,43,0.00,,,0.00,WeatherCatV1.12B45,2013-04-06 05:34:00,
2013-04-05 22:39:00,48.7,27.3,29.85,SW,216,0.0,0.0,43,0.00,,,0.00,WeatherCatV1.12B45,2013-04-06 05:39:00,
2013-04-05 22:44:00,48.7,27.3,29.85,SE,133,0.0,3.6,43,0.00,,,0.00,WeatherCatV1.12B45,2013-04-06 05:44:00,
2013-04-05 22:49:00,48.7,27.3,29.85,SSW,199,0.0,2.7,43,0.00,,,0.00,WeatherCatV1.12B45,2013-04-06 05:49:00,
2013-04-05 22:54:00,48.9,27.4,29.85,SSW,196,3.6,3.6,43,0.00,,,0.00,WeatherCatV1.12B45,2013-04-06 05:54:00,
2013-04-05 22:59:00,48.7,27.3,29.85,NE,44,2.7,4.0,43,0.00,,,0.00,WeatherCatV1.12B45,2013-04-06 05:59:00,
2013-04-05 23:04:00,48.7,27.3,29.85,SSW,212,0.0,3.6,43,0.00,,,0.00,WeatherCatV1.12B45,2013-04-06 06:04:00,
2013-04-05 23:09:00,48.7,27.3,29.85,SSW,206,2.2,3.1,43,0.00,,,0.00,WeatherCatV1.12B45,2013-04-06 06:09:00,
2013-04-05 23:14:00,48.7,27.3,29.85,SW,225,0.0,0.0,43,0.00,,,0.00,WeatherCatV1.12B45,2013-04-06 06:14:00,
2013-04-05 23:19:00,48.6,27.1,29.85,SW,225,0.0,0.0,43,0.00,,,0.00,WeatherCatV1.12B45,2013-04-06 06:19:00,
2013-04-05 23:24:00,48.4,26.9,29.85,SW,225,0.0,0.0,43,0.00,,,0.00,WeatherCatV1.12B45,2013-04-06 06:24:00,
2013-04-05 23:29:00,48.2,27.3,29.85,South,189,0.0,2.7,44,0.00,,,0.00,WeatherCatV1.12B45,2013-04-06 06:29:00,
2013-04-05 23:34:00,48.2,27.3,29.85,SSE,151,0.0,0.0,44,0.00,,,0.00,WeatherCatV1.12B45,2013-04-06 06:34:00,
2013-04-05 23:39:00,48.4,27.5,29.85,South,181,0.0,0.0,44,0.00,,,0.00,WeatherCatV1.12B45,2013-04-06 06:39:00,
2013-04-05 23:44:00,48.4,28.0,29.85,SE,135,0.0,4.0,45,0.00,,,0.00,WeatherCatV1.12B45,2013-04-06 06:44:00,
2013-04-05 23:49:00,48.2,27.3,29.85,SE,135,0.0,0.0,44,0.00,,,0.00,WeatherCatV1.12B45,2013-04-06 06:49:00,
2013-04-05 23:54:00,48.2,27.3,29.85,SSW,211,3.1,6.3,44,0.00,,,0.00,WeatherCatV1.12B45,2013-04-06 06:54:00,
2013-04-05 23:59:00,48.4,27.5,29.85,SE,142,0.0,2.7,44,0.00,,,0.00,WeatherCatV1.12B45,2013-04-06 06:59:00,